sensor_id;sensor_type;location;lat;lon;timestamp;temperature;humidity
2435;DHT22;1228;51.022;6.764;2023-06-10T00:01:24;18.70;99.90
2435;DHT22;1228;51.022;6.764;2023-06-10T00:03:50;18.70;99.90
2435;DHT22;1228;51.022;6.764;2023-06-10T00:06:17;18.70;99.90
2435;DHT22;1228;51.022;6.764;2023-06-10T00:08:43;18.70;99.90
2435;DHT22;1228;51.022;6.764;2023-06-10T00:11:08;18.70;99.90
2435;DHT22;1228;51.022;6.764;2023-06-10T00:13:34;18.70;99.90
2435;DHT22;1228;51.022;6.764;2023-06-10T00:16:00;18.60;99.90
2435;DHT22;1228;51.022;6.764;2023-06-10T00:18:26;18.60;99.90
2435;DHT22;1228;51.022;6.764;2023-06-10T00:20:52;18.50;99.90
2435;DHT22;1228;51.022;6.764;2023-06-10T00:23:21;18.60;99.90
2435;DHT22;1228;51.022;6.764;2023-06-10T00:25:46;18.50;99.90
2435;DHT22;1228;51.022;6.764;2023-06-10T00:28:12;18.50;99.90
2435;DHT22;1228;51.022;6.764;2023-06-10T00:30:38;18.50;99.90
2435;DHT22;1228;51.022;6.764;2023-06-10T00:33:04;18.40;99.90
2435;DHT22;1228;51.022;6.764;2023-06-10T00:35:30;18.40;99.90
2435;DHT22;1228;51.022;6.764;2023-06-10T00:37:55;18.40;99.90
2435;DHT22;1228;51.022;6.764;2023-06-10T00:40:21;18.30;99.90
2435;DHT22;1228;51.022;6.764;2023-06-10T00:42:47;18.30;99.90
2435;DHT22;1228;51.022;6.764;2023-06-10T00:45:12;18.30;99.90
2435;DHT22;1228;51.022;6.764;2023-06-10T00:47:38;18.30;99.90
2435;DHT22;1228;51.022;6.764;2023-06-10T00:50:05;18.20;99.90
2435;DHT22;1228;51.022;6.764;2023-06-10T00:52:32;18.20;99.90
2435;DHT22;1228;51.022;6.764;2023-06-10T00:54:59;18.20;99.90
2435;DHT22;1228;51.022;6.764;2023-06-10T00:57:25;18.20;99.90
2435;DHT22;1228;51.022;6.764;2023-06-10T00:59:51;18.10;99.90
2435;DHT22;1228;51.022;6.764;2023-06-10T01:02:17;18.00;99.90
2435;DHT22;1228;51.022;6.764;2023-06-10T01:04:43;18.00;99.90
2435;DHT22;1228;51.022;6.764;2023-06-10T01:10:01;18.00;99.90
2435;DHT22;1228;51.022;6.764;2023-06-10T01:12:49;18.00;99.90
2435;DHT22;1228;51.022;6.764;2023-06-10T01:15:17;18.00;99.90
2435;DHT22;1228;51.022;6.764;2023-06-10T01:18:03;17.90;99.90
2435;DHT22;1228;51.022;6.764;2023-06-10T01:20:31;17.90;99.90
2435;DHT22;1228;51.022;6.764;2023-06-10T01:23:01;17.80;99.90
2435;DHT22;1228;51.022;6.764;2023-06-10T01:25:29;17.80;99.90
2435;DHT22;1228;51.022;6.764;2023-06-10T01:28:09;17.70;99.90
2435;DHT22;1228;51.022;6.764;2023-06-10T01:30:56;17.70;99.90
2435;DHT22;1228;51.022;6.764;2023-06-10T01:33:28;17.70;99.90
2435;DHT22;1228;51.022;6.764;2023-06-10T01:35:59;17.70;99.90
2435;DHT22;1228;51.022;6.764;2023-06-10T01:38:27;17.60;99.90
2435;DHT22;1228;51.022;6.764;2023-06-10T01:40:56;17.60;99.90
2435;DHT22;1228;51.022;6.764;2023-06-10T01:43:23;17.60;99.90
2435;DHT22;1228;51.022;6.764;2023-06-10T01:45:48;17.50;99.90
2435;DHT22;1228;51.022;6.764;2023-06-10T01:48:14;17.50;99.90
2435;DHT22;1228;51.022;6.764;2023-06-10T01:50:40;17.40;99.90
2435;DHT22;1228;51.022;6.764;2023-06-10T01:53:05;17.40;99.90
2435;DHT22;1228;51.022;6.764;2023-06-10T01:55:31;17.30;99.90
2435;DHT22;1228;51.022;6.764;2023-06-10T01:57:57;17.20;99.90
2435;DHT22;1228;51.022;6.764;2023-06-10T02:00:22;17.20;99.90
2435;DHT22;1228;51.022;6.764;2023-06-10T02:02:48;17.20;99.90
2435;DHT22;1228;51.022;6.764;2023-06-10T02:05:14;17.20;99.90
2435;DHT22;1228;51.022;6.764;2023-06-10T02:07:39;17.10;99.90
2435;DHT22;1228;51.022;6.764;2023-06-10T02:10:06;17.10;99.90
2435;DHT22;1228;51.022;6.764;2023-06-10T02:12:32;17.10;99.90
2435;DHT22;1228;51.022;6.764;2023-06-10T02:14:58;17.10;99.90
2435;DHT22;1228;51.022;6.764;2023-06-10T02:17:23;17.10;99.90
2435;DHT22;1228;51.022;6.764;2023-06-10T02:19:49;17.00;99.90
2435;DHT22;1228;51.022;6.764;2023-06-10T02:22:24;17.00;99.90
2435;DHT22;1228;51.022;6.764;2023-06-10T02:24:50;17.00;99.90
2435;DHT22;1228;51.022;6.764;2023-06-10T02:27:16;16.90;99.90
2435;DHT22;1228;51.022;6.764;2023-06-10T02:29:42;16.90;99.90
2435;DHT22;1228;51.022;6.764;2023-06-10T02:32:09;16.90;99.90
2435;DHT22;1228;51.022;6.764;2023-06-10T02:34:35;16.90;99.90
2435;DHT22;1228;51.022;6.764;2023-06-10T02:37:02;16.90;99.90
2435;DHT22;1228;51.022;6.764;2023-06-10T02:39:28;16.80;99.90
2435;DHT22;1228;51.022;6.764;2023-06-10T02:41:54;16.80;99.90
2435;DHT22;1228;51.022;6.764;2023-06-10T02:44:19;16.80;99.90
2435;DHT22;1228;51.022;6.764;2023-06-10T02:46:45;16.70;99.90
2435;DHT22;1228;51.022;6.764;2023-06-10T02:49:11;16.70;99.90
2435;DHT22;1228;51.022;6.764;2023-06-10T02:51:37;16.70;99.90
2435;DHT22;1228;51.022;6.764;2023-06-10T02:54:03;16.60;99.90
2435;DHT22;1228;51.022;6.764;2023-06-10T02:56:28;16.60;99.90
2435;DHT22;1228;51.022;6.764;2023-06-10T02:58:54;16.60;99.90
2435;DHT22;1228;51.022;6.764;2023-06-10T03:01:21;16.50;99.90
2435;DHT22;1228;51.022;6.764;2023-06-10T03:03:46;16.40;99.90
2435;DHT22;1228;51.022;6.764;2023-06-10T03:06:13;16.40;99.90
2435;DHT22;1228;51.022;6.764;2023-06-10T03:08:39;16.40;99.90
2435;DHT22;1228;51.022;6.764;2023-06-10T03:11:05;16.30;99.90
2435;DHT22;1228;51.022;6.764;2023-06-10T03:13:32;16.40;99.90
2435;DHT22;1228;51.022;6.764;2023-06-10T03:15:58;16.40;99.90
2435;DHT22;1228;51.022;6.764;2023-06-10T03:18:27;16.30;99.90
2435;DHT22;1228;51.022;6.764;2023-06-10T03:20:54;16.30;99.90
2435;DHT22;1228;51.022;6.764;2023-06-10T03:23:20;16.30;99.90
2435;DHT22;1228;51.022;6.764;2023-06-10T03:25:46;16.20;99.90
2435;DHT22;1228;51.022;6.764;2023-06-10T03:28:12;16.20;99.90
2435;DHT22;1228;51.022;6.764;2023-06-10T03:30:38;16.20;99.90
2435;DHT22;1228;51.022;6.764;2023-06-10T03:33:03;16.20;99.90
2435;DHT22;1228;51.022;6.764;2023-06-10T03:35:29;16.20;99.90
2435;DHT22;1228;51.022;6.764;2023-06-10T03:37:55;16.10;99.90
2435;DHT22;1228;51.022;6.764;2023-06-10T03:40:21;16.10;99.90
2435;DHT22;1228;51.022;6.764;2023-06-10T03:42:47;16.10;99.90
2435;DHT22;1228;51.022;6.764;2023-06-10T03:45:12;16.10;99.90
2435;DHT22;1228;51.022;6.764;2023-06-10T03:47:38;16.10;99.90
2435;DHT22;1228;51.022;6.764;2023-06-10T03:50:06;16.10;99.90
2435;DHT22;1228;51.022;6.764;2023-06-10T03:52:33;16.20;99.90
2435;DHT22;1228;51.022;6.764;2023-06-10T03:54:59;16.30;99.90
2435;DHT22;1228;51.022;6.764;2023-06-10T03:57:25;16.40;99.90
2435;DHT22;1228;51.022;6.764;2023-06-10T03:59:51;16.50;99.90
2435;DHT22;1228;51.022;6.764;2023-06-10T04:02:17;16.50;99.90
2435;DHT22;1228;51.022;6.764;2023-06-10T04:04:43;16.50;99.90
2435;DHT22;1228;51.022;6.764;2023-06-10T04:07:08;16.50;99.90
2435;DHT22;1228;51.022;6.764;2023-06-10T04:09:34;16.60;99.90
2435;DHT22;1228;51.022;6.764;2023-06-10T04:12:01;16.70;99.90
2435;DHT22;1228;51.022;6.764;2023-06-10T04:14:27;16.70;99.90
2435;DHT22;1228;51.022;6.764;2023-06-10T04:16:53;16.70;99.90
2435;DHT22;1228;51.022;6.764;2023-06-10T04:19:18;16.80;99.90
2435;DHT22;1228;51.022;6.764;2023-06-10T04:21:44;16.90;99.90
2435;DHT22;1228;51.022;6.764;2023-06-10T04:24:09;17.10;99.90
2435;DHT22;1228;51.022;6.764;2023-06-10T04:26:35;17.10;99.90
2435;DHT22;1228;51.022;6.764;2023-06-10T04:29:02;17.30;99.90
2435;DHT22;1228;51.022;6.764;2023-06-10T04:31:27;17.40;99.90
2435;DHT22;1228;51.022;6.764;2023-06-10T04:33:53;17.50;99.90
2435;DHT22;1228;51.022;6.764;2023-06-10T04:36:19;17.80;99.90
2435;DHT22;1228;51.022;6.764;2023-06-10T04:38:45;18.00;99.90
2435;DHT22;1228;51.022;6.764;2023-06-10T04:41:12;18.30;99.90
2435;DHT22;1228;51.022;6.764;2023-06-10T04:43:38;18.60;99.90
2435;DHT22;1228;51.022;6.764;2023-06-10T04:46:04;19.00;99.90
2435;DHT22;1228;51.022;6.764;2023-06-10T04:48:29;19.20;99.90
2435;DHT22;1228;51.022;6.764;2023-06-10T04:50:55;19.40;99.90
2435;DHT22;1228;51.022;6.764;2023-06-10T04:53:22;19.60;99.90
2435;DHT22;1228;51.022;6.764;2023-06-10T04:55:48;19.90;99.90
2435;DHT22;1228;51.022;6.764;2023-06-10T04:58:14;20.20;99.90
2435;DHT22;1228;51.022;6.764;2023-06-10T05:00:40;20.50;99.90
2435;DHT22;1228;51.022;6.764;2023-06-10T05:03:05;20.90;99.90
2435;DHT22;1228;51.022;6.764;2023-06-10T05:05:31;21.30;99.90
2435;DHT22;1228;51.022;6.764;2023-06-10T05:07:56;21.60;99.90
2435;DHT22;1228;51.022;6.764;2023-06-10T05:10:22;22.00;99.90
2435;DHT22;1228;51.022;6.764;2023-06-10T05:12:48;22.20;99.90
2435;DHT22;1228;51.022;6.764;2023-06-10T05:15:13;22.40;99.90
2435;DHT22;1228;51.022;6.764;2023-06-10T05:17:39;22.60;99.90
2435;DHT22;1228;51.022;6.764;2023-06-10T05:20:05;22.60;99.90
2435;DHT22;1228;51.022;6.764;2023-06-10T05:22:31;22.60;99.90
2435;DHT22;1228;51.022;6.764;2023-06-10T05:24:57;22.50;99.90
2435;DHT22;1228;51.022;6.764;2023-06-10T05:27:22;22.30;99.90
2435;DHT22;1228;51.022;6.764;2023-06-10T05:29:48;22.30;99.90
2435;DHT22;1228;51.022;6.764;2023-06-10T05:32:13;22.20;99.90
2435;DHT22;1228;51.022;6.764;2023-06-10T05:34:39;22.20;99.90
2435;DHT22;1228;51.022;6.764;2023-06-10T05:37:05;22.30;99.90
2435;DHT22;1228;51.022;6.764;2023-06-10T05:39:31;22.50;99.90
2435;DHT22;1228;51.022;6.764;2023-06-10T05:41:56;22.70;99.90
2435;DHT22;1228;51.022;6.764;2023-06-10T05:44:24;23.00;99.90
2435;DHT22;1228;51.022;6.764;2023-06-10T05:46:50;23.30;99.90
2435;DHT22;1228;51.022;6.764;2023-06-10T05:49:16;23.70;99.90
2435;DHT22;1228;51.022;6.764;2023-06-10T05:51:41;24.10;99.90
2435;DHT22;1228;51.022;6.764;2023-06-10T05:54:07;24.60;99.90
2435;DHT22;1228;51.022;6.764;2023-06-10T05:56:33;24.90;99.90
2435;DHT22;1228;51.022;6.764;2023-06-10T05:58:58;25.30;99.90
2435;DHT22;1228;51.022;6.764;2023-06-10T06:01:24;25.50;99.90
2435;DHT22;1228;51.022;6.764;2023-06-10T06:03:50;25.80;99.90
2435;DHT22;1228;51.022;6.764;2023-06-10T06:06:15;26.00;99.90
2435;DHT22;1228;51.022;6.764;2023-06-10T06:08:41;26.10;99.90
2435;DHT22;1228;51.022;6.764;2023-06-10T06:11:07;26.40;99.90
2435;DHT22;1228;51.022;6.764;2023-06-10T06:13:33;26.70;99.90
2435;DHT22;1228;51.022;6.764;2023-06-10T06:15:58;27.00;99.90
2435;DHT22;1228;51.022;6.764;2023-06-10T06:18:24;27.40;99.90
2435;DHT22;1228;51.022;6.764;2023-06-10T06:20:50;27.70;99.90
2435;DHT22;1228;51.022;6.764;2023-06-10T06:23:15;28.00;99.90
2435;DHT22;1228;51.022;6.764;2023-06-10T06:25:41;28.10;99.90
2435;DHT22;1228;51.022;6.764;2023-06-10T06:28:07;28.50;99.90
2435;DHT22;1228;51.022;6.764;2023-06-10T06:30:34;28.80;99.90
2435;DHT22;1228;51.022;6.764;2023-06-10T06:33:00;29.10;99.90
2435;DHT22;1228;51.022;6.764;2023-06-10T06:35:26;29.30;99.90
2435;DHT22;1228;51.022;6.764;2023-06-10T06:37:51;29.70;99.90
2435;DHT22;1228;51.022;6.764;2023-06-10T06:40:17;30.10;99.90
2435;DHT22;1228;51.022;6.764;2023-06-10T06:42:43;30.50;99.90
2435;DHT22;1228;51.022;6.764;2023-06-10T06:45:09;30.40;99.90
2435;DHT22;1228;51.022;6.764;2023-06-10T06:47:34;30.60;99.90
2435;DHT22;1228;51.022;6.764;2023-06-10T06:50:00;30.80;99.90
2435;DHT22;1228;51.022;6.764;2023-06-10T06:52:26;30.90;99.90
2435;DHT22;1228;51.022;6.764;2023-06-10T06:54:51;30.90;99.90
2435;DHT22;1228;51.022;6.764;2023-06-10T06:57:17;31.10;99.90
2435;DHT22;1228;51.022;6.764;2023-06-10T06:59:43;31.20;99.90
2435;DHT22;1228;51.022;6.764;2023-06-10T07:02:08;31.30;99.90
2435;DHT22;1228;51.022;6.764;2023-06-10T07:04:34;31.40;99.90
2435;DHT22;1228;51.022;6.764;2023-06-10T07:07:00;31.30;99.90
2435;DHT22;1228;51.022;6.764;2023-06-10T07:09:25;31.30;99.90
2435;DHT22;1228;51.022;6.764;2023-06-10T07:11:51;31.20;99.90
2435;DHT22;1228;51.022;6.764;2023-06-10T07:14:17;31.10;99.90
2435;DHT22;1228;51.022;6.764;2023-06-10T07:16:42;30.90;99.90
2435;DHT22;1228;51.022;6.764;2023-06-10T07:19:10;30.50;99.90
2435;DHT22;1228;51.022;6.764;2023-06-10T07:21:36;30.60;99.90
2435;DHT22;1228;51.022;6.764;2023-06-10T07:24:03;30.50;99.90
2435;DHT22;1228;51.022;6.764;2023-06-10T07:26:29;30.70;99.90
2435;DHT22;1228;51.022;6.764;2023-06-10T07:28:54;30.80;99.90
2435;DHT22;1228;51.022;6.764;2023-06-10T07:31:20;30.70;99.90
2435;DHT22;1228;51.022;6.764;2023-06-10T07:33:46;30.70;99.90
2435;DHT22;1228;51.022;6.764;2023-06-10T07:36:12;30.80;99.90
2435;DHT22;1228;51.022;6.764;2023-06-10T07:38:37;31.20;99.90
2435;DHT22;1228;51.022;6.764;2023-06-10T07:41:03;31.60;99.90
2435;DHT22;1228;51.022;6.764;2023-06-10T07:43:29;31.70;99.90
2435;DHT22;1228;51.022;6.764;2023-06-10T07:45:55;31.70;99.90
2435;DHT22;1228;51.022;6.764;2023-06-10T07:48:20;31.80;99.90
2435;DHT22;1228;51.022;6.764;2023-06-10T07:50:46;31.70;99.90
2435;DHT22;1228;51.022;6.764;2023-06-10T07:53:11;31.80;99.90
2435;DHT22;1228;51.022;6.764;2023-06-10T07:55:37;32.00;99.90
2435;DHT22;1228;51.022;6.764;2023-06-10T07:58:02;32.00;99.90
2435;DHT22;1228;51.022;6.764;2023-06-10T08:00:28;32.00;99.90
2435;DHT22;1228;51.022;6.764;2023-06-10T08:02:54;32.00;99.90
2435;DHT22;1228;51.022;6.764;2023-06-10T08:05:19;32.40;99.90
2435;DHT22;1228;51.022;6.764;2023-06-10T08:07:46;32.60;99.90
2435;DHT22;1228;51.022;6.764;2023-06-10T08:10:11;32.70;99.90
2435;DHT22;1228;51.022;6.764;2023-06-10T08:12:37;32.90;99.90
2435;DHT22;1228;51.022;6.764;2023-06-10T08:15:03;33.20;99.50
2435;DHT22;1228;51.022;6.764;2023-06-10T08:17:30;33.30;99.80
2435;DHT22;1228;51.022;6.764;2023-06-10T08:19:55;33.70;99.90
2435;DHT22;1228;51.022;6.764;2023-06-10T08:22:21;34.00;99.90
2435;DHT22;1228;51.022;6.764;2023-06-10T08:24:47;34.10;99.90
2435;DHT22;1228;51.022;6.764;2023-06-10T08:27:12;34.50;99.00
2435;DHT22;1228;51.022;6.764;2023-06-10T08:29:39;34.90;99.40
2435;DHT22;1228;51.022;6.764;2023-06-10T08:32:05;35.20;98.10
2435;DHT22;1228;51.022;6.764;2023-06-10T08:34:33;35.30;97.00
2435;DHT22;1228;51.022;6.764;2023-06-10T08:36:59;35.20;99.20
2435;DHT22;1228;51.022;6.764;2023-06-10T08:39:25;35.20;96.80
2435;DHT22;1228;51.022;6.764;2023-06-10T08:42:16;35.10;96.30
2435;DHT22;1228;51.022;6.764;2023-06-10T08:44:46;35.20;97.40
2435;DHT22;1228;51.022;6.764;2023-06-10T08:47:16;35.10;99.20
2435;DHT22;1228;51.022;6.764;2023-06-10T08:49:45;35.30;96.10
2435;DHT22;1228;51.022;6.764;2023-06-10T08:52:21;35.50;97.40
2435;DHT22;1228;51.022;6.764;2023-06-10T08:54:52;35.60;98.10
2435;DHT22;1228;51.022;6.764;2023-06-10T08:57:18;35.40;96.10
2435;DHT22;1228;51.022;6.764;2023-06-10T08:59:47;35.20;97.50
2435;DHT22;1228;51.022;6.764;2023-06-10T09:02:14;35.50;97.70
2435;DHT22;1228;51.022;6.764;2023-06-10T09:04:42;35.70;94.80
2435;DHT22;1228;51.022;6.764;2023-06-10T09:07:08;36.00;95.20
2435;DHT22;1228;51.022;6.764;2023-06-10T09:09:35;36.00;93.10
2435;DHT22;1228;51.022;6.764;2023-06-10T09:12:00;36.20;94.20
2435;DHT22;1228;51.022;6.764;2023-06-10T09:14:26;36.00;94.40
2435;DHT22;1228;51.022;6.764;2023-06-10T09:16:52;36.00;93.30
2435;DHT22;1228;51.022;6.764;2023-06-10T09:19:23;36.00;93.30
2435;DHT22;1228;51.022;6.764;2023-06-10T09:21:49;36.40;93.30
2435;DHT22;1228;51.022;6.764;2023-06-10T09:24:15;36.50;92.00
2435;DHT22;1228;51.022;6.764;2023-06-10T09:26:42;36.30;91.20
2435;DHT22;1228;51.022;6.764;2023-06-10T09:29:08;36.10;92.20
2435;DHT22;1228;51.022;6.764;2023-06-10T09:31:35;36.00;91.80
2435;DHT22;1228;51.022;6.764;2023-06-10T09:34:20;36.20;92.20
2435;DHT22;1228;51.022;6.764;2023-06-10T09:36:50;36.10;90.60
2435;DHT22;1228;51.022;6.764;2023-06-10T09:39:17;36.00;92.50
2435;DHT22;1228;51.022;6.764;2023-06-10T09:41:44;36.20;92.40
2435;DHT22;1228;51.022;6.764;2023-06-10T09:44:14;36.60;94.10
2435;DHT22;1228;51.022;6.764;2023-06-10T09:46:41;36.80;91.00
2435;DHT22;1228;51.022;6.764;2023-06-10T09:49:06;36.80;90.40
2435;DHT22;1228;51.022;6.764;2023-06-10T09:51:32;36.40;91.10
2435;DHT22;1228;51.022;6.764;2023-06-10T09:53:58;36.00;91.40
2435;DHT22;1228;51.022;6.764;2023-06-10T09:56:36;35.90;91.10
2435;DHT22;1228;51.022;6.764;2023-06-10T09:59:03;35.80;91.80
2435;DHT22;1228;51.022;6.764;2023-06-10T10:01:30;36.00;91.70
2435;DHT22;1228;51.022;6.764;2023-06-10T10:03:56;36.30;91.30
2435;DHT22;1228;51.022;6.764;2023-06-10T10:06:22;36.60;90.50
2435;DHT22;1228;51.022;6.764;2023-06-10T10:08:49;36.60;91.00
2435;DHT22;1228;51.022;6.764;2023-06-10T10:11:19;36.60;86.60
2435;DHT22;1228;51.022;6.764;2023-06-10T10:13:49;36.50;91.40
2435;DHT22;1228;51.022;6.764;2023-06-10T10:16:20;36.40;88.30
2435;DHT22;1228;51.022;6.764;2023-06-10T10:18:54;36.50;87.70
2435;DHT22;1228;51.022;6.764;2023-06-10T10:21:23;36.80;90.80
2435;DHT22;1228;51.022;6.764;2023-06-10T10:24:15;37.10;90.30
2435;DHT22;1228;51.022;6.764;2023-06-10T10:26:41;37.20;88.80
2435;DHT22;1228;51.022;6.764;2023-06-10T10:29:21;37.30;88.40
2435;DHT22;1228;51.022;6.764;2023-06-10T10:31:51;37.30;87.60
2435;DHT22;1228;51.022;6.764;2023-06-10T10:34:24;37.20;88.10
2435;DHT22;1228;51.022;6.764;2023-06-10T10:36:51;37.60;85.20
2435;DHT22;1228;51.022;6.764;2023-06-10T10:39:17;38.10;84.70
2435;DHT22;1228;51.022;6.764;2023-06-10T10:41:44;38.40;86.70
2435;DHT22;1228;51.022;6.764;2023-06-10T10:44:10;38.50;87.80
2435;DHT22;1228;51.022;6.764;2023-06-10T10:46:50;38.70;82.20
2435;DHT22;1228;51.022;6.764;2023-06-10T10:49:17;39.20;83.20
2435;DHT22;1228;51.022;6.764;2023-06-10T10:52:01;39.80;82.70
2435;DHT22;1228;51.022;6.764;2023-06-10T10:54:36;40.10;85.00
2435;DHT22;1228;51.022;6.764;2023-06-10T10:57:19;40.30;73.80
2435;DHT22;1228;51.022;6.764;2023-06-10T10:59:58;40.40;76.50
2435;DHT22;1228;51.022;6.764;2023-06-10T11:02:46;40.10;74.20
2435;DHT22;1228;51.022;6.764;2023-06-10T11:05:15;40.30;74.40
2435;DHT22;1228;51.022;6.764;2023-06-10T11:07:41;40.60;70.70
2435;DHT22;1228;51.022;6.764;2023-06-10T11:10:16;40.00;73.80
2435;DHT22;1228;51.022;6.764;2023-06-10T11:12:50;39.40;74.10
2435;DHT22;1228;51.022;6.764;2023-06-10T11:15:23;38.90;78.00
2435;DHT22;1228;51.022;6.764;2023-06-10T11:18:12;38.80;77.50
2435;DHT22;1228;51.022;6.764;2023-06-10T11:28:38;35.80;78.60
2435;DHT22;1228;51.022;6.764;2023-06-10T11:31:04;35.30;79.00
2435;DHT22;1228;51.022;6.764;2023-06-10T11:33:29;35.20;80.10
2435;DHT22;1228;51.022;6.764;2023-06-10T11:35:56;35.50;80.20
2435;DHT22;1228;51.022;6.764;2023-06-10T11:38:22;36.10;80.00
2435;DHT22;1228;51.022;6.764;2023-06-10T11:40:48;36.60;75.80
2435;DHT22;1228;51.022;6.764;2023-06-10T11:43:17;36.90;79.20
2435;DHT22;1228;51.022;6.764;2023-06-10T11:45:43;36.70;78.60
2435;DHT22;1228;51.022;6.764;2023-06-10T11:48:10;36.50;79.50
2435;DHT22;1228;51.022;6.764;2023-06-10T11:50:36;36.10;82.80
2435;DHT22;1228;51.022;6.764;2023-06-10T11:53:03;35.60;76.80
2435;DHT22;1228;51.022;6.764;2023-06-10T11:58:18;34.60;79.20
2435;DHT22;1228;51.022;6.764;2023-06-10T12:00:48;34.40;76.30
2435;DHT22;1228;51.022;6.764;2023-06-10T12:03:15;34.20;79.50
2435;DHT22;1228;51.022;6.764;2023-06-10T12:05:54;34.10;81.70
2435;DHT22;1228;51.022;6.764;2023-06-10T12:08:19;33.80;84.40
2435;DHT22;1228;51.022;6.764;2023-06-10T12:10:45;33.80;83.00
2435;DHT22;1228;51.022;6.764;2023-06-10T12:13:11;33.80;83.90
2435;DHT22;1228;51.022;6.764;2023-06-10T12:15:37;33.60;77.90
2435;DHT22;1228;51.022;6.764;2023-06-10T12:18:03;33.40;87.50
2435;DHT22;1228;51.022;6.764;2023-06-10T12:20:30;33.30;84.20
2435;DHT22;1228;51.022;6.764;2023-06-10T12:22:57;33.30;82.80
2435;DHT22;1228;51.022;6.764;2023-06-10T12:25:27;33.40;86.90
2435;DHT22;1228;51.022;6.764;2023-06-10T12:27:55;33.60;85.70
2435;DHT22;1228;51.022;6.764;2023-06-10T12:30:23;34.00;84.70
2435;DHT22;1228;51.022;6.764;2023-06-10T12:32:50;34.60;83.70
2435;DHT22;1228;51.022;6.764;2023-06-10T12:35:19;35.30;84.30
2435;DHT22;1228;51.022;6.764;2023-06-10T12:40:27;36.80;81.40
2435;DHT22;1228;51.022;6.764;2023-06-10T12:42:54;37.60;75.10
2435;DHT22;1228;51.022;6.764;2023-06-10T12:45:34;38.20;72.30
2435;DHT22;1228;51.022;6.764;2023-06-10T12:48:22;38.30;74.60
2435;DHT22;1228;51.022;6.764;2023-06-10T12:50:53;38.50;68.60
2435;DHT22;1228;51.022;6.764;2023-06-10T12:53:19;38.40;67.60
2435;DHT22;1228;51.022;6.764;2023-06-10T12:55:45;38.50;69.20
2435;DHT22;1228;51.022;6.764;2023-06-10T12:58:12;38.40;68.80
2435;DHT22;1228;51.022;6.764;2023-06-10T13:00:38;38.20;64.80
2435;DHT22;1228;51.022;6.764;2023-06-10T13:03:04;38.40;63.60
2435;DHT22;1228;51.022;6.764;2023-06-10T13:05:31;38.40;60.30
2435;DHT22;1228;51.022;6.764;2023-06-10T13:07:57;38.50;62.80
2435;DHT22;1228;51.022;6.764;2023-06-10T13:10:23;38.60;57.50
2435;DHT22;1228;51.022;6.764;2023-06-10T13:12:50;38.70;58.20
2435;DHT22;1228;51.022;6.764;2023-06-10T13:15:16;38.70;56.40
2435;DHT22;1228;51.022;6.764;2023-06-10T13:17:45;38.80;62.20
2435;DHT22;1228;51.022;6.764;2023-06-10T13:20:14;38.60;55.40
2435;DHT22;1228;51.022;6.764;2023-06-10T13:22:41;38.20;57.10
2435;DHT22;1228;51.022;6.764;2023-06-10T13:25:07;38.00;55.80
2435;DHT22;1228;51.022;6.764;2023-06-10T13:27:37;37.80;59.60
2435;DHT22;1228;51.022;6.764;2023-06-10T13:30:08;37.40;66.00
2435;DHT22;1228;51.022;6.764;2023-06-10T13:32:34;37.30;60.70
2435;DHT22;1228;51.022;6.764;2023-06-10T13:35:00;37.00;59.30
2435;DHT22;1228;51.022;6.764;2023-06-10T13:37:26;36.30;58.80
2435;DHT22;1228;51.022;6.764;2023-06-10T13:39:52;35.60;60.00
2435;DHT22;1228;51.022;6.764;2023-06-10T13:42:18;35.60;63.40
2435;DHT22;1228;51.022;6.764;2023-06-10T13:44:44;36.10;65.90
2435;DHT22;1228;51.022;6.764;2023-06-10T13:47:10;36.20;60.60
2435;DHT22;1228;51.022;6.764;2023-06-10T13:49:35;36.40;66.10
2435;DHT22;1228;51.022;6.764;2023-06-10T13:52:02;36.20;68.50
2435;DHT22;1228;51.022;6.764;2023-06-10T13:54:27;35.80;62.20
2435;DHT22;1228;51.022;6.764;2023-06-10T13:56:53;35.70;64.00
2435;DHT22;1228;51.022;6.764;2023-06-10T13:59:19;35.50;62.60
2435;DHT22;1228;51.022;6.764;2023-06-10T14:01:46;35.40;70.10
2435;DHT22;1228;51.022;6.764;2023-06-10T14:04:11;35.70;68.00
2435;DHT22;1228;51.022;6.764;2023-06-10T14:06:37;36.10;63.30
2435;DHT22;1228;51.022;6.764;2023-06-10T14:09:03;36.40;64.80
2435;DHT22;1228;51.022;6.764;2023-06-10T14:11:28;36.50;63.70
2435;DHT22;1228;51.022;6.764;2023-06-10T14:13:54;36.80;64.80
2435;DHT22;1228;51.022;6.764;2023-06-10T14:16:23;37.20;61.90
2435;DHT22;1228;51.022;6.764;2023-06-10T14:18:49;37.30;59.00
2435;DHT22;1228;51.022;6.764;2023-06-10T14:21:16;37.40;57.80
2435;DHT22;1228;51.022;6.764;2023-06-10T14:23:41;37.50;54.30
2435;DHT22;1228;51.022;6.764;2023-06-10T14:26:08;37.80;57.40
2435;DHT22;1228;51.022;6.764;2023-06-10T14:28:34;38.40;55.70
2435;DHT22;1228;51.022;6.764;2023-06-10T14:30:59;38.80;55.30
2435;DHT22;1228;51.022;6.764;2023-06-10T14:33:25;39.20;49.70
2435;DHT22;1228;51.022;6.764;2023-06-10T14:35:51;39.40;52.50
2435;DHT22;1228;51.022;6.764;2023-06-10T14:38:16;38.90;49.50
2435;DHT22;1228;51.022;6.764;2023-06-10T14:40:42;38.20;55.00
2435;DHT22;1228;51.022;6.764;2023-06-10T14:43:07;37.70;51.20
2435;DHT22;1228;51.022;6.764;2023-06-10T14:45:36;36.90;53.10
2435;DHT22;1228;51.022;6.764;2023-06-10T14:48:03;36.00;52.60
2435;DHT22;1228;51.022;6.764;2023-06-10T14:50:29;35.30;54.60
2435;DHT22;1228;51.022;6.764;2023-06-10T14:52:55;34.60;52.30
2435;DHT22;1228;51.022;6.764;2023-06-10T14:55:20;34.00;54.30
2435;DHT22;1228;51.022;6.764;2023-06-10T14:57:48;33.60;54.90
2435;DHT22;1228;51.022;6.764;2023-06-10T15:00:14;33.30;55.70
2435;DHT22;1228;51.022;6.764;2023-06-10T15:02:42;33.40;59.60
2435;DHT22;1228;51.022;6.764;2023-06-10T15:05:08;33.70;58.00
2435;DHT22;1228;51.022;6.764;2023-06-10T15:07:33;33.80;56.30
2435;DHT22;1228;51.022;6.764;2023-06-10T15:09:59;33.70;54.90
2435;DHT22;1228;51.022;6.764;2023-06-10T15:12:25;34.00;57.30
2435;DHT22;1228;51.022;6.764;2023-06-10T15:14:50;34.10;58.00
2435;DHT22;1228;51.022;6.764;2023-06-10T15:17:16;34.20;58.30
2435;DHT22;1228;51.022;6.764;2023-06-10T15:19:42;34.00;58.80
2435;DHT22;1228;51.022;6.764;2023-06-10T15:22:07;33.50;55.90
2435;DHT22;1228;51.022;6.764;2023-06-10T15:24:33;33.40;55.30
2435;DHT22;1228;51.022;6.764;2023-06-10T15:26:58;33.40;57.50
2435;DHT22;1228;51.022;6.764;2023-06-10T15:29:24;33.30;57.80
2435;DHT22;1228;51.022;6.764;2023-06-10T15:31:50;33.10;59.00
2435;DHT22;1228;51.022;6.764;2023-06-10T15:34:15;33.30;60.30
2435;DHT22;1228;51.022;6.764;2023-06-10T15:36:41;33.40;55.40
2435;DHT22;1228;51.022;6.764;2023-06-10T15:39:06;33.80;56.70
2435;DHT22;1228;51.022;6.764;2023-06-10T15:41:33;34.00;56.40
2435;DHT22;1228;51.022;6.764;2023-06-10T15:43:59;33.70;56.30
2435;DHT22;1228;51.022;6.764;2023-06-10T15:46:26;33.60;57.30
2435;DHT22;1228;51.022;6.764;2023-06-10T15:48:52;33.70;56.80
2435;DHT22;1228;51.022;6.764;2023-06-10T15:51:21;34.00;57.70
2435;DHT22;1228;51.022;6.764;2023-06-10T15:53:46;34.10;56.70
2435;DHT22;1228;51.022;6.764;2023-06-10T15:56:13;34.30;56.80
2435;DHT22;1228;51.022;6.764;2023-06-10T15:58:39;34.50;59.40
2435;DHT22;1228;51.022;6.764;2023-06-10T16:01:04;34.80;58.80
2435;DHT22;1228;51.022;6.764;2023-06-10T16:03:31;34.80;54.00
2435;DHT22;1228;51.022;6.764;2023-06-10T16:05:57;35.00;56.80
2435;DHT22;1228;51.022;6.764;2023-06-10T16:08:22;35.10;54.50
2435;DHT22;1228;51.022;6.764;2023-06-10T16:10:48;35.10;55.70
2435;DHT22;1228;51.022;6.764;2023-06-10T16:13:13;35.30;53.40
2435;DHT22;1228;51.022;6.764;2023-06-10T16:15:39;35.50;53.50
2435;DHT22;1228;51.022;6.764;2023-06-10T16:18:05;35.50;54.20